PWSweather.com
Personal Weather Stations
Station Observations
KMNZUMBR2
Covered Bridge Park, Zumbrota, MN 55992

Covered Bridge ParkZumbrota, MN 55992

Lat: 44.302051, Lon: -92.674974

Elevation: 928

Station Type: Davis Vantage Pro 2 Plus

Latest ConditionsUpdated 3:40:01 PM CDT Wednesday, Apr 24, 2019
Currently Today's Max Today's Min Today's Average
Temperature 69.1°F20.6°C 70.0°F21.1°C 36.2°F2.3°C 51.1°F10.6°C
Dew Point 41.7°F5.4°C 47.1°F8.4°C 27.4°F-2.6°C 36.1°F2.3°C
Winds 1.2 mph S1.9 kmh S 8.1 mph -13.0 kmh - - 1.6 mph 2.6 kmh
Wind Gusts 3.5 mph5.6 kmh 18.4 mph29.6 kmh - -
Humidity 37% 80% 37% 59%
Pressure 29.75 in1007.5 mb 29.98 in1015.2 mb 29.75 in1007.5 mb -
Hour Temp Dew Point Humidity Winds Wind Gusts Pressure Precip Precip Rate Daily Precip Total
03:40 PM 69.1°F20.6°C 41.7°F5.4°C 37% 1.2 mph S1.9 kmh S 3.5 mph5.6 kmh 29.75 in1007.5 mb - 0.00 in0.0 mm 0.00 in0.0 mm
03:30 PM 67.8°F19.9°C 40.6°F4.8°C 37% 4.6 mph SSW7.4 kmh SSW 11.5 mph18.5 kmh 29.75 in1007.5 mb - 0.00 in0.0 mm 0.00 in0.0 mm
03:20 PM 66.4°F19.1°C 39.3°F4.1°C 37% 3.5 mph SSW5.6 kmh SSW 10.4 mph16.7 kmh 29.76 in1007.8 mb - 0.00 in0.0 mm 0.00 in0.0 mm
03:10 PM 67.1°F19.5°C 39.9°F4.4°C 37% 2.3 mph S3.7 kmh S 8.1 mph13.0 kmh 29.76 in1007.8 mb - 0.00 in0.0 mm 0.00 in0.0 mm
03:00 PM 67.2°F19.6°C 41.4°F5.2°C 39% 5.8 mph S9.3 kmh S 16.1 mph25.9 kmh 29.77 in1008.1 mb - 0.00 in0.0 mm 0.00 in0.0 mm
02:50 PM 67.9°F19.9°C 42.0°F5.6°C 39% 5.8 mph S9.3 kmh S 11.5 mph18.5 kmh 29.77 in1008.1 mb - 0.00 in0.0 mm 0.00 in0.0 mm
02:40 PM 67.8°F19.9°C 41.9°F5.5°C 39% 1.2 mph SSW1.9 kmh SSW 11.5 mph18.5 kmh 29.77 in1008.1 mb - 0.00 in0.0 mm 0.00 in0.0 mm
02:30 PM 68.4°F20.2°C 42.5°F5.8°C 39% 3.5 mph SW5.6 kmh SW 9.2 mph14.8 kmh 29.77 in1008.1 mb - 0.00 in0.0 mm 0.00 in0.0 mm
02:20 PM 70.0°F21.1°C 43.9°F6.6°C 39% 2.3 mph S3.7 kmh S 11.5 mph18.5 kmh 29.77 in1008.1 mb - 0.00 in0.0 mm 0.00 in0.0 mm
02:10 PM 69.0°F20.6°C 43.0°F6.1°C 39% 3.5 mph SSW5.6 kmh SSW 5.8 mph9.3 kmh 29.78 in1008.5 mb - 0.00 in0.0 mm 0.00 in0.0 mm
02:00 PM 68.5°F20.3°C 42.6°F5.9°C 39% 5.8 mph S9.3 kmh S 16.1 mph25.9 kmh 29.79 in1008.8 mb - 0.00 in0.0 mm 0.00 in0.0 mm
01:50 PM 69.2°F20.7°C 43.2°F6.2°C 39% 4.6 mph SSW7.4 kmh SSW 10.4 mph16.7 kmh 29.79 in1008.8 mb - 0.00 in0.0 mm 0.00 in0.0 mm
01:40 PM 69.1°F20.6°C 43.1°F6.2°C 39% 1.2 mph SSW1.9 kmh SSW 2.3 mph3.7 kmh 29.79 in1008.8 mb - 0.00 in0.0 mm 0.00 in0.0 mm
01:30 PM 69.1°F20.6°C 43.1°F6.2°C 39% 4.6 mph SSW7.4 kmh SSW 12.7 mph20.4 kmh 29.79 in1008.8 mb - 0.00 in0.0 mm 0.00 in0.0 mm
01:20 PM 68.5°F20.3°C 42.6°F5.9°C 39% 1.2 mph SW1.9 kmh SW 2.3 mph3.7 kmh 29.80 in1009.1 mb - 0.00 in0.0 mm 0.00 in0.0 mm
01:10 PM 67.2°F19.6°C 41.4°F5.2°C 39% 8.1 mph S13.0 kmh S 13.8 mph22.2 kmh 29.80 in1009.1 mb - 0.00 in0.0 mm 0.00 in0.0 mm
01:00 PM 66.8°F19.3°C 41.0°F5.0°C 39% 6.9 mph SSW11.1 kmh SSW 9.2 mph14.8 kmh 29.81 in1009.5 mb - 0.00 in0.0 mm 0.00 in0.0 mm
12:50 PM 67.6°F19.8°C 41.7°F5.4°C 39% 6.9 mph SSW11.1 kmh SSW 11.5 mph18.5 kmh 29.82 in1009.8 mb - 0.00 in0.0 mm 0.00 in0.0 mm
12:40 PM 67.2°F19.6°C 41.3°F5.2°C 39% 4.6 mph SSW7.4 kmh SSW 9.2 mph14.8 kmh 29.82 in1009.8 mb - 0.00 in0.0 mm 0.00 in0.0 mm
12:30 PM 67.2°F19.6°C 41.4°F5.2°C 39% 4.6 mph S7.4 kmh S 11.5 mph18.5 kmh 29.83 in1010.2 mb - 0.00 in0.0 mm 0.00 in0.0 mm
12:20 PM 66.9°F19.4°C 41.1°F5.1°C 39% 4.6 mph SSW7.4 kmh SSW 6.9 mph11.1 kmh 29.83 in1010.2 mb - 0.00 in0.0 mm 0.00 in0.0 mm
12:10 PM 65.5°F18.6°C 39.9°F4.4°C 39% 2.3 mph SW3.7 kmh SW 11.5 mph18.5 kmh 29.83 in1010.2 mb - 0.00 in0.0 mm 0.00 in0.0 mm
12:00 PM 64.5°F18.1°C 40.3°F4.6°C 41% 2.3 mph S3.7 kmh S 5.8 mph9.3 kmh 29.84 in1010.5 mb - 0.00 in0.0 mm 0.00 in0.0 mm
11:50 AM 65.2°F18.4°C 40.9°F4.9°C 41% 5.8 mph S9.3 kmh S 11.5 mph18.5 kmh 29.84 in1010.5 mb - 0.00 in0.0 mm 0.00 in0.0 mm
11:40 AM 64.8°F18.2°C 40.6°F4.8°C 41% 3.5 mph SSW5.6 kmh SSW 8.1 mph13.0 kmh 29.85 in1010.8 mb - 0.00 in0.0 mm 0.00 in0.0 mm
11:30 AM 65.3°F18.5°C 41.0°F5.0°C 41% 5.8 mph S9.3 kmh S 11.5 mph18.5 kmh 29.86 in1011.2 mb - 0.00 in0.0 mm 0.00 in0.0 mm
11:20 AM 64.7°F18.2°C 40.5°F4.7°C 41% 1.2 mph SW1.9 kmh SW 3.5 mph5.6 kmh 29.86 in1011.2 mb - 0.00 in0.0 mm 0.00 in0.0 mm
11:10 AM 64.9°F18.3°C 40.6°F4.8°C 41% 4.6 mph SSW7.4 kmh SSW 12.7 mph20.4 kmh 29.87 in1011.5 mb - 0.00 in0.0 mm 0.00 in0.0 mm
11:00 AM 64.4°F18.0°C 43.7°F6.5°C 47% 2.3 mph S3.7 kmh S 9.2 mph14.8 kmh 29.87 in1011.5 mb - 0.00 in0.0 mm 0.00 in0.0 mm
10:50 AM 64.7°F18.2°C 44.0°F6.7°C 47% 2.3 mph S3.7 kmh S 10.4 mph16.7 kmh 29.87 in1011.5 mb - 0.00 in0.0 mm 0.00 in0.0 mm
10:40 AM 64.3°F17.9°C 43.6°F6.4°C 47% 4.6 mph S7.4 kmh S 10.4 mph16.7 kmh 29.87 in1011.5 mb - 0.00 in0.0 mm 0.00 in0.0 mm
10:30 AM 63.3°F17.4°C 42.7°F5.9°C 47% 2.3 mph SSW3.7 kmh SSW 6.9 mph11.1 kmh 29.88 in1011.9 mb - 0.00 in0.0 mm 0.00 in0.0 mm
10:20 AM 63.2°F17.3°C 42.6°F5.9°C 47% 5.8 mph SSW9.3 kmh SSW 18.4 mph29.6 kmh 29.87 in1011.5 mb - 0.00 in0.0 mm 0.00 in0.0 mm
10:10 AM 63.0°F17.2°C 42.5°F5.8°C 47% 3.5 mph S5.6 kmh S 4.6 mph7.4 kmh 29.88 in1011.9 mb - 0.00 in0.0 mm 0.00 in0.0 mm
10:00 AM 62.6°F17.0°C 47.1°F8.4°C 57% 2.3 mph SW3.7 kmh SW 4.6 mph7.4 kmh 29.88 in1011.9 mb - 0.00 in0.0 mm 0.00 in0.0 mm
09:50 AM 61.6°F16.4°C 46.2°F7.9°C 57% 5.8 mph SW9.3 kmh SW 17.3 mph27.8 kmh 29.88 in1011.9 mb - 0.00 in0.0 mm 0.00 in0.0 mm
09:40 AM 61.2°F16.2°C 45.8°F7.7°C 57% 4.6 mph S7.4 kmh S 8.1 mph13.0 kmh 29.88 in1011.9 mb - 0.00 in0.0 mm 0.00 in0.0 mm
09:30 AM 60.6°F15.9°C 45.2°F7.3°C 57% 1.2 mph S1.9 kmh S 9.2 mph14.8 kmh 29.88 in1011.9 mb - 0.00 in0.0 mm 0.00 in0.0 mm
09:20 AM 60.3°F15.7°C 45.0°F7.2°C 57% 2.3 mph SSW3.7 kmh SSW 4.6 mph7.4 kmh 29.89 in1012.2 mb - 0.00 in0.0 mm 0.00 in0.0 mm
09:10 AM 59.2°F15.1°C 44.0°F6.7°C 57% 2.3 mph SW3.7 kmh SW 10.4 mph16.7 kmh 29.89 in1012.2 mb - 0.00 in0.0 mm 0.00 in0.0 mm
09:00 AM 58.1°F14.5°C 44.7°F7.1°C 61% 1.2 mph SW1.9 kmh SW 5.8 mph9.3 kmh 29.89 in1012.2 mb - 0.00 in0.0 mm 0.00 in0.0 mm
08:50 AM 57.0°F13.9°C 43.7°F6.5°C 61% Calm Calm 1.2 mph1.9 kmh 29.90 in1012.5 mb - 0.00 in0.0 mm 0.00 in0.0 mm
08:40 AM 55.9°F13.3°C 42.6°F5.9°C 61% 1.2 mph SW1.9 kmh SW 1.2 mph1.9 kmh 29.90 in1012.5 mb - 0.00 in0.0 mm 0.00 in0.0 mm
08:30 AM 54.3°F12.4°C 41.2°F5.1°C 61% 1.2 mph SSW1.9 kmh SSW 10.4 mph16.7 kmh 29.90 in1012.5 mb - 0.00 in0.0 mm 0.00 in0.0 mm
08:20 AM 53.0°F11.7°C 39.9°F4.4°C 61% 1.2 mph S1.9 kmh S 3.5 mph5.6 kmh 29.90 in1012.5 mb - 0.00 in0.0 mm 0.00 in0.0 mm
08:10 AM 50.7°F10.4°C 37.8°F3.2°C 61% Calm Calm -- 29.91 in1012.9 mb - 0.00 in0.0 mm 0.00 in0.0 mm
08:00 AM 48.4°F9.1°C 39.1°F3.9°C 70% Calm Calm -- 29.91 in1012.9 mb - 0.00 in0.0 mm 0.00 in0.0 mm
07:50 AM 45.2°F7.3°C 36.0°F2.2°C 70% Calm Calm -- 29.91 in1012.9 mb - 0.00 in0.0 mm 0.00 in0.0 mm
07:40 AM 43.0°F6.1°C 33.8°F1.0°C 70% Calm Calm -- 29.91 in1012.9 mb - 0.00 in0.0 mm 0.00 in0.0 mm
07:30 AM 41.7°F5.4°C 32.6°F0.3°C 70% Calm Calm -- 29.91 in1012.9 mb - 0.00 in0.0 mm 0.00 in0.0 mm
07:20 AM 39.3°F4.1°C 30.3°F-0.9°C 70% Calm Calm -- 29.92 in1013.2 mb - 0.00 in0.0 mm 0.00 in0.0 mm
07:10 AM 38.2°F3.4°C 29.3°F-1.5°C 70% Calm Calm -- 29.92 in1013.2 mb - 0.00 in0.0 mm 0.00 in0.0 mm
07:00 AM 37.7°F3.2°C 30.5°F-0.8°C 75% Calm Calm -- 29.91 in1012.9 mb - 0.00 in0.0 mm 0.00 in0.0 mm
06:50 AM 37.6°F3.1°C 30.4°F-0.9°C 75% Calm Calm -- 29.92 in1013.2 mb - 0.00 in0.0 mm 0.00 in0.0 mm
06:40 AM 38.0°F3.3°C 30.8°F-0.7°C 75% Calm Calm -- 29.92 in1013.2 mb - 0.00 in0.0 mm 0.00 in0.0 mm
06:30 AM 37.0°F2.8°C 29.8°F-1.2°C 75% Calm Calm -- 29.91 in1012.9 mb - 0.00 in0.0 mm 0.00 in0.0 mm
06:20 AM 36.4°F2.4°C 29.2°F-1.6°C 75% Calm Calm -- 29.91 in1012.9 mb - 0.00 in0.0 mm 0.00 in0.0 mm
06:10 AM 36.3°F2.4°C 29.1°F-1.6°C 75% Calm Calm -- 29.91 in1012.9 mb - 0.00 in0.0 mm 0.00 in0.0 mm
06:00 AM 36.5°F2.5°C 27.6°F-2.4°C 70% Calm Calm -- 29.92 in1013.2 mb - 0.00 in0.0 mm 0.00 in0.0 mm
05:50 AM 36.2°F2.3°C 27.4°F-2.6°C 70% Calm Calm -- 29.92 in1013.2 mb - 0.00 in0.0 mm 0.00 in0.0 mm
05:40 AM 36.5°F2.5°C 27.6°F-2.4°C 70% Calm Calm -- 29.92 in1013.2 mb - 0.00 in0.0 mm 0.00 in0.0 mm
05:30 AM 36.4°F2.4°C 27.5°F-2.5°C 70% Calm Calm -- 29.92 in1013.2 mb - 0.00 in0.0 mm 0.00 in0.0 mm
05:20 AM 36.5°F2.5°C 27.6°F-2.4°C 70% Calm Calm -- 29.92 in1013.2 mb - 0.00 in0.0 mm 0.00 in0.0 mm
05:10 AM 36.2°F2.3°C 27.4°F-2.6°C 70% Calm Calm -- 29.92 in1013.2 mb - 0.00 in0.0 mm 0.00 in0.0 mm
05:00 AM 36.2°F2.3°C 30.7°F-0.7°C 80% Calm Calm -- 29.92 in1013.2 mb - 0.00 in0.0 mm 0.00 in0.0 mm
04:50 AM 36.3°F2.4°C 30.7°F-0.7°C 80% Calm Calm -- 29.93 in1013.5 mb - 0.00 in0.0 mm 0.00 in0.0 mm
04:40 AM 36.6°F2.6°C 31.0°F-0.6°C 80% Calm Calm -- 29.93 in1013.5 mb - 0.00 in0.0 mm 0.00 in0.0 mm
04:30 AM 36.9°F2.7°C 31.3°F-0.4°C 80% Calm Calm -- 29.93 in1013.5 mb - 0.00 in0.0 mm 0.00 in0.0 mm
04:20 AM 36.9°F2.7°C 31.3°F-0.4°C 80% Calm Calm -- 29.92 in1013.2 mb - 0.00 in0.0 mm 0.00 in0.0 mm
04:10 AM 37.1°F2.8°C 31.5°F-0.3°C 80% Calm Calm -- 29.93 in1013.5 mb - 0.00 in0.0 mm 0.00 in0.0 mm
04:00 AM 37.2°F2.9°C 30.0°F-1.1°C 75% Calm Calm -- 29.93 in1013.5 mb - 0.00 in0.0 mm 0.00 in0.0 mm
03:50 AM 37.3°F2.9°C 30.1°F-1.1°C 75% Calm Calm -- 29.93 in1013.5 mb - 0.00 in0.0 mm 0.00 in0.0 mm
03:40 AM 37.4°F3.0°C 30.2°F-1.0°C 75% Calm Calm -- 29.93 in1013.5 mb - 0.00 in0.0 mm 0.00 in0.0 mm
03:30 AM 37.3°F2.9°C 30.1°F-1.1°C 75% Calm Calm -- 29.93 in1013.5 mb - 0.00 in0.0 mm 0.00 in0.0 mm
03:20 AM 37.3°F2.9°C 30.1°F-1.1°C 75% Calm Calm -- 29.93 in1013.5 mb - 0.00 in0.0 mm 0.00 in0.0 mm
03:10 AM 37.4°F3.0°C 30.2°F-1.0°C 75% Calm Calm -- 29.93 in1013.5 mb - 0.00 in0.0 mm 0.00 in0.0 mm
03:00 AM 37.8°F3.2°C 28.9°F-1.7°C 70% Calm Calm -- 29.94 in1013.9 mb - 0.00 in0.0 mm 0.00 in0.0 mm
02:50 AM 38.1°F3.4°C 29.2°F-1.6°C 70% Calm Calm -- 29.94 in1013.9 mb - 0.00 in0.0 mm 0.00 in0.0 mm
02:40 AM 38.2°F3.4°C 29.3°F-1.5°C 70% Calm Calm -- 29.95 in1014.2 mb - 0.00 in0.0 mm 0.00 in0.0 mm
02:30 AM 38.4°F3.6°C 29.5°F-1.4°C 70% Calm Calm -- 29.95 in1014.2 mb - 0.00 in0.0 mm 0.00 in0.0 mm
02:20 AM 38.6°F3.7°C 29.6°F-1.3°C 70% Calm Calm -- 29.96 in1014.6 mb - 0.00 in0.0 mm 0.00 in0.0 mm
02:10 AM 38.4°F3.6°C 29.5°F-1.4°C 70% Calm Calm -- 29.96 in1014.6 mb - 0.00 in0.0 mm 0.00 in0.0 mm
02:00 AM 38.7°F3.7°C 27.9°F-2.3°C 65% Calm Calm -- 29.96 in1014.6 mb - 0.00 in0.0 mm 0.00 in0.0 mm
01:50 AM 39.0°F3.9°C 28.2°F-2.1°C 65% Calm Calm -- 29.96 in1014.6 mb - 0.00 in0.0 mm 0.00 in0.0 mm
01:40 AM 39.6°F4.2°C 28.8°F-1.8°C 65% Calm Calm -- 29.97 in1014.9 mb - 0.00 in0.0 mm 0.00 in0.0 mm
01:30 AM 39.7°F4.3°C 28.9°F-1.7°C 65% Calm Calm -- 29.97 in1014.9 mb - 0.00 in0.0 mm 0.00 in0.0 mm
01:20 AM 39.8°F4.3°C 29.0°F-1.7°C 65% Calm Calm -- 29.97 in1014.9 mb - 0.00 in0.0 mm 0.00 in0.0 mm
01:10 AM 40.1°F4.5°C 29.3°F-1.5°C 65% Calm Calm -- 29.97 in1014.9 mb - 0.00 in0.0 mm 0.00 in0.0 mm
01:00 AM 40.4°F4.7°C 31.4°F-0.3°C 70% Calm Calm -- 29.97 in1014.9 mb - 0.00 in0.0 mm 0.00 in0.0 mm
12:50 AM 40.6°F4.8°C 31.6°F-0.2°C 70% Calm Calm -- 29.97 in1014.9 mb - 0.00 in0.0 mm 0.00 in0.0 mm
12:40 AM 40.8°F4.9°C 31.8°F-0.1°C 70% Calm Calm -- 29.97 in1014.9 mb - 0.00 in0.0 mm 0.00 in0.0 mm
12:30 AM 41.0°F5.0°C 32.0°F0.0°C 70% Calm Calm -- 29.97 in1014.9 mb - 0.00 in0.0 mm 0.00 in0.0 mm
12:20 AM 41.4°F5.2°C 32.3°F0.2°C 70% Calm Calm -- 29.97 in1014.9 mb - 0.00 in0.0 mm 0.00 in0.0 mm
12:10 AM 41.6°F5.3°C 32.5°F0.3°C 70% Calm Calm -- 29.97 in1014.9 mb - 0.00 in0.0 mm 0.00 in0.0 mm
12:00 AM 41.9°F5.5°C 34.6°F1.4°C 75% Calm Calm -- 29.98 in1015.2 mb - 0.00 in0.0 mm 0.00 in0.0 mm